Hovedside
METAR-TAF:

METAR-TAF

Lufthavner :

De Aar, Sør-Afrika

breddegrad: 30-40-29S, lengdegrad: 23-59-57E, høyde over havet: 1286 m

Gjeldene værobservasjon

Denne rapporten ble laget for 17 timer og 41 minutter siden, klokken 08:34 UTC
Vind 4 kt fra Sørøst
Temperatur 11°C
Luftfuktighet 58%
Trykk 1029 hPa
Sikt 10 km eller mer
ingen skyer under 1500 m og ingen bygeskyer

METAR: FADY 130834Z 14004KT CAVOK 11/03 Q1029

Tid: 04:15 (02:15 UTC)


TAF: fraværende

Værobservasjoner og værvarsel for over 4000 flyplasser (METAR- og TAF-rapporter).

Tilgjengelige stasjoner er representert av de røde og gule prikkene på kartet.

Hold musepekeren over prikken for å se navnet på stasjonen.

Klikk så for å se værobservasjoner og -varsler.

For å forandre kartet kan du klikke på den grønne knappen med svart kryss for å zoome inn, på den grønne knappen med strek for å zoome ut, eller på de grønne pilene for å se tilstøtende kart.


METAR-TAF: